sensor_id;sensor_type;location;lat;lon;timestamp;pressure;altitude;pressure_sealevel;temperature;humidity
23996;BME280;12207;50.076;8.848;2022-07-23T00:01:04;100007.03;;;21.61;88.26
23996;BME280;12207;50.076;8.848;2022-07-23T00:03:31;100006.16;;;21.59;88.77
23996;BME280;12207;50.076;8.848;2022-07-23T00:05:58;100000.06;;;21.46;89.89
23996;BME280;12207;50.076;8.848;2022-07-23T00:08:24;100002.69;;;21.57;89.47
23996;BME280;12207;50.076;8.848;2022-07-23T00:10:51;100005.31;;;21.63;88.58
23996;BME280;12207;50.076;8.848;2022-07-23T00:13:18;99994.88;;;21.48;88.96
23996;BME280;12207;50.076;8.848;2022-07-23T00:15:44;99986.13;;;21.30;90.17
23996;BME280;12207;50.076;8.848;2022-07-23T00:18:11;99975.75;;;21.30;90.49
23996;BME280;12207;50.076;8.848;2022-07-23T00:20:38;99981.69;;;21.14;90.88
23996;BME280;12207;50.076;8.848;2022-07-23T00:23:04;99983.50;;;21.24;90.42
23996;BME280;12207;50.076;8.848;2022-07-23T00:25:31;99982.53;;;21.08;90.91
23996;BME280;12207;50.076;8.848;2022-07-23T00:27:59;99998.13;;;21.10;90.87
23996;BME280;12207;50.076;8.848;2022-07-23T00:30:26;100003.28;;;21.01;91.93
23996;BME280;12207;50.076;8.848;2022-07-23T00:33:01;100001.53;;;21.01;91.89
23996;BME280;12207;50.076;8.848;2022-07-23T00:35:31;99998.03;;;20.96;91.97
23996;BME280;12207;50.076;8.848;2022-07-23T00:37:59;99993.66;;;20.83;92.55
23996;BME280;12207;50.076;8.848;2022-07-23T00:40:28;99994.59;;;20.94;92.19
23996;BME280;12207;50.076;8.848;2022-07-23T00:42:55;99994.56;;;20.89;92.38
23996;BME280;12207;50.076;8.848;2022-07-23T00:45:22;100000.50;;;20.75;93.26
23996;BME280;12207;50.076;8.848;2022-07-23T00:47:49;99996.19;;;20.74;93.15
23996;BME280;12207;50.076;8.848;2022-07-23T00:50:16;99993.59;;;20.78;93.53
23996;BME280;12207;50.076;8.848;2022-07-23T00:52:42;100005.78;;;20.87;93.22
23996;BME280;12207;50.076;8.848;2022-07-23T00:55:10;100001.50;;;20.97;92.36
23996;BME280;12207;50.076;8.848;2022-07-23T00:57:38;99990.00;;;20.58;94.29
23996;BME280;12207;50.076;8.848;2022-07-23T01:00:09;99978.91;;;20.74;93.16
23996;BME280;12207;50.076;8.848;2022-07-23T01:02:37;99972.91;;;20.83;92.90
23996;BME280;12207;50.076;8.848;2022-07-23T01:05:04;99964.22;;;20.78;93.71
23996;BME280;12207;50.076;8.848;2022-07-23T01:07:32;99972.03;;;20.82;93.31
23996;BME280;12207;50.076;8.848;2022-07-23T01:09:59;99974.50;;;20.67;94.08
23996;BME280;12207;50.076;8.848;2022-07-23T01:12:26;99978.81;;;20.62;94.24
23996;BME280;12207;50.076;8.848;2022-07-23T01:15:00;99994.25;;;20.49;95.26
23996;BME280;12207;50.076;8.848;2022-07-23T01:17:27;100000.22;;;20.39;95.84
23996;BME280;12207;50.076;8.848;2022-07-23T01:19:54;100006.25;;;20.38;95.90
23996;BME280;12207;50.076;8.848;2022-07-23T01:22:21;100002.78;;;20.39;95.81
23996;BME280;12207;50.076;8.848;2022-07-23T01:24:48;100011.41;;;20.32;97.12
23996;BME280;12207;50.076;8.848;2022-07-23T01:27:15;100017.47;;;20.37;96.78
23996;BME280;12207;50.076;8.848;2022-07-23T01:29:44;100019.22;;;20.38;95.95
23996;BME280;12207;50.076;8.848;2022-07-23T01:32:10;100029.50;;;20.29;96.74
23996;BME280;12207;50.076;8.848;2022-07-23T01:34:37;100034.69;;;20.29;97.10
23996;BME280;12207;50.076;8.848;2022-07-23T01:37:04;100031.22;;;20.30;97.44
23996;BME280;12207;50.076;8.848;2022-07-23T01:39:30;100037.25;;;20.26;98.08
23996;BME280;12207;50.076;8.848;2022-07-23T01:41:57;100036.44;;;20.32;97.31
23996;BME280;12207;50.076;8.848;2022-07-23T01:44:24;100029.47;;;20.27;97.86
23996;BME280;12207;50.076;8.848;2022-07-23T01:46:51;100023.53;;;20.38;97.66
23996;BME280;12207;50.076;8.848;2022-07-23T01:49:18;100017.44;;;20.34;100.00
23996;BME280;12207;50.076;8.848;2022-07-23T01:51:45;99998.31;;;20.21;100.00
23996;BME280;12207;50.076;8.848;2022-07-23T01:54:32;99995.59;;;20.08;100.00
23996;BME280;12207;50.076;8.848;2022-07-23T01:56:59;99993.78;;;19.96;100.00
23996;BME280;12207;50.076;8.848;2022-07-23T01:59:27;99990.25;;;19.89;100.00
23996;BME280;12207;50.076;8.848;2022-07-23T02:01:54;99987.59;;;19.83;100.00
23996;BME280;12207;50.076;8.848;2022-07-23T02:04:21;99993.56;;;19.77;100.00
23996;BME280;12207;50.076;8.848;2022-07-23T02:06:49;99980.53;;;19.67;100.00
23996;BME280;12207;50.076;8.848;2022-07-23T02:09:15;99970.31;;;19.79;100.00
23996;BME280;12207;50.076;8.848;2022-07-23T02:11:42;99976.25;;;19.70;100.00
23996;BME280;12207;50.076;8.848;2022-07-23T02:14:09;99990.69;;;19.53;100.00
23996;BME280;12207;50.076;8.848;2022-07-23T02:16:36;100003.53;;;19.45;100.00
23996;BME280;12207;50.076;8.848;2022-07-23T02:19:03;100014.81;;;19.49;100.00
23996;BME280;12207;50.076;8.848;2022-07-23T02:21:30;100016.47;;;19.45;100.00
23996;BME280;12207;50.076;8.848;2022-07-23T02:23:57;100033.88;;;19.55;100.00
23996;BME280;12207;50.076;8.848;2022-07-23T02:26:23;100038.88;;;19.43;100.00
23996;BME280;12207;50.076;8.848;2022-07-23T02:28:50;100041.38;;;19.35;100.00
23996;BME280;12207;50.076;8.848;2022-07-23T02:31:17;100038.78;;;19.34;100.00
23996;BME280;12207;50.076;8.848;2022-07-23T02:33:43;100039.47;;;19.24;100.00
23996;BME280;12207;50.076;8.848;2022-07-23T02:36:10;100031.81;;;19.30;100.00
23996;BME280;12207;50.076;8.848;2022-07-23T02:38:37;100029.38;;;19.41;100.00
23996;BME280;12207;50.076;8.848;2022-07-23T02:41:03;100036.94;;;19.27;100.00
23996;BME280;12207;50.076;8.848;2022-07-23T02:43:30;100039.53;;;19.25;100.00
23996;BME280;12207;50.076;8.848;2022-07-23T02:45:57;100019.53;;;19.15;100.00
23996;BME280;12207;50.076;8.848;2022-07-23T02:48:23;100028.16;;;19.14;100.00
23996;BME280;12207;50.076;8.848;2022-07-23T02:50:50;100021.25;;;19.13;100.00
23996;BME280;12207;50.076;8.848;2022-07-23T02:53:18;100021.22;;;19.10;100.00
23996;BME280;12207;50.076;8.848;2022-07-23T02:55:44;100014.31;;;19.10;100.00
23996;BME280;12207;50.076;8.848;2022-07-23T02:58:11;100020.31;;;19.09;100.00
23996;BME280;12207;50.076;8.848;2022-07-23T03:00:38;100022.81;;;19.03;100.00
23996;BME280;12207;50.076;8.848;2022-07-23T03:03:04;100025.41;;;19.02;100.00
23996;BME280;12207;50.076;8.848;2022-07-23T03:05:31;100025.56;;;19.14;100.00
23996;BME280;12207;50.076;8.848;2022-07-23T03:07:58;100030.00;;;19.24;100.00
23996;BME280;12207;50.076;8.848;2022-07-23T03:10:25;100034.22;;;19.16;100.00
23996;BME280;12207;50.076;8.848;2022-07-23T03:12:52;100027.28;;;19.15;100.00
23996;BME280;12207;50.076;8.848;2022-07-23T03:15:19;100038.75;;;19.31;100.00
23996;BME280;12207;50.076;8.848;2022-07-23T03:17:45;100043.72;;;19.17;100.00
23996;BME280;12207;50.076;8.848;2022-07-23T03:20:12;100047.91;;;19.07;100.00
23996;BME280;12207;50.076;8.848;2022-07-23T03:22:39;100045.47;;;19.21;100.00
23996;BME280;12207;50.076;8.848;2022-07-23T03:25:06;100041.09;;;19.14;100.00
23996;BME280;12207;50.076;8.848;2022-07-23T03:27:33;100037.63;;;19.15;100.00
23996;BME280;12207;50.076;8.848;2022-07-23T03:30:00;100033.28;;;19.11;100.00
23996;BME280;12207;50.076;8.848;2022-07-23T03:32:27;100040.91;;;19.03;100.00
23996;BME280;12207;50.076;8.848;2022-07-23T03:34:54;100034.13;;;19.10;100.00
23996;BME280;12207;50.076;8.848;2022-07-23T03:37:20;100042.72;;;19.09;100.00
23996;BME280;12207;50.076;8.848;2022-07-23T03:39:47;100052.16;;;19.05;100.00
23996;BME280;12207;50.076;8.848;2022-07-23T03:42:14;100059.16;;;19.11;100.00
23996;BME280;12207;50.076;8.848;2022-07-23T03:44:40;100060.06;;;19.13;100.00
23996;BME280;12207;50.076;8.848;2022-07-23T03:47:07;100063.25;;;18.95;100.00
23996;BME280;12207;50.076;8.848;2022-07-23T03:49:34;100069.38;;;19.02;100.00
23996;BME280;12207;50.076;8.848;2022-07-23T03:52:01;100071.09;;;19.01;100.00
23996;BME280;12207;50.076;8.848;2022-07-23T03:54:28;100065.88;;;19.00;100.00
23996;BME280;12207;50.076;8.848;2022-07-23T03:56:55;100075.41;;;19.01;100.00
23996;BME280;12207;50.076;8.848;2022-07-23T03:59:21;100075.44;;;19.05;100.00
23996;BME280;12207;50.076;8.848;2022-07-23T04:01:48;100071.81;;;18.94;100.00
23996;BME280;12207;50.076;8.848;2022-07-23T04:04:15;100070.03;;;18.90;100.00
23996;BME280;12207;50.076;8.848;2022-07-23T04:06:42;100082.25;;;19.00;100.00
23996;BME280;12207;50.076;8.848;2022-07-23T04:09:08;100085.66;;;18.96;100.00
23996;BME280;12207;50.076;8.848;2022-07-23T04:11:35;100084.78;;;18.96;100.00
23996;BME280;12207;50.076;8.848;2022-07-23T04:14:02;100084.72;;;18.91;100.00
23996;BME280;12207;50.076;8.848;2022-07-23T04:16:29;100076.94;;;18.91;100.00
23996;BME280;12207;50.076;8.848;2022-07-23T04:18:57;100067.56;;;18.96;100.00
23996;BME280;12207;50.076;8.848;2022-07-23T04:21:25;100074.41;;;18.93;100.00
23996;BME280;12207;50.076;8.848;2022-07-23T04:23:51;100087.47;;;19.03;100.00
23996;BME280;12207;50.076;8.848;2022-07-23T04:26:18;100097.09;;;19.10;100.00
23996;BME280;12207;50.076;8.848;2022-07-23T04:28:45;100099.81;;;19.20;100.00
23996;BME280;12207;50.076;8.848;2022-07-23T04:31:11;100102.03;;;19.56;100.00
23996;BME280;12207;50.076;8.848;2022-07-23T04:33:38;100096.47;;;19.91;100.00
23996;BME280;12207;50.076;8.848;2022-07-23T04:36:05;100097.56;;;20.11;100.00
23996;BME280;12207;50.076;8.848;2022-07-23T04:38:32;100098.22;;;19.95;100.00
23996;BME280;12207;50.076;8.848;2022-07-23T04:40:59;100104.25;;;19.91;100.00
23996;BME280;12207;50.076;8.848;2022-07-23T04:43:26;100108.94;;;20.24;100.00
23996;BME280;12207;50.076;8.848;2022-07-23T04:45:53;100101.94;;;20.17;100.00
23996;BME280;12207;50.076;8.848;2022-07-23T04:48:20;100118.78;;;20.56;100.00
23996;BME280;12207;50.076;8.848;2022-07-23T04:50:46;100120.00;;;20.11;100.00
23996;BME280;12207;50.076;8.848;2022-07-23T04:53:13;100118.09;;;19.94;100.00
23996;BME280;12207;50.076;8.848;2022-07-23T04:55:40;100115.28;;;19.76;100.00
23996;BME280;12207;50.076;8.848;2022-07-23T04:58:08;100129.31;;;19.93;100.00
23996;BME280;12207;50.076;8.848;2022-07-23T05:00:35;100144.59;;;20.46;100.00
23996;BME280;12207;50.076;8.848;2022-07-23T05:03:01;100151.09;;;20.93;100.00
23996;BME280;12207;50.076;8.848;2022-07-23T05:05:28;100146.44;;;21.68;97.70
23996;BME280;12207;50.076;8.848;2022-07-23T05:07:55;100148.41;;;22.21;93.90
23996;BME280;12207;50.076;8.848;2022-07-23T05:10:21;100150.22;;;22.55;91.71
23996;BME280;12207;50.076;8.848;2022-07-23T05:12:48;100145.66;;;21.84;94.31
23996;BME280;12207;50.076;8.848;2022-07-23T05:15:15;100146.41;;;21.57;95.93
23996;BME280;12207;50.076;8.848;2022-07-23T05:17:41;100138.63;;;20.55;100.00
23996;BME280;12207;50.076;8.848;2022-07-23T05:20:08;100139.41;;;20.46;100.00
23996;BME280;12207;50.076;8.848;2022-07-23T05:22:35;100152.03;;;20.17;100.00
23996;BME280;12207;50.076;8.848;2022-07-23T05:25:02;100157.66;;;19.83;100.00
23996;BME280;12207;50.076;8.848;2022-07-23T05:27:29;100159.53;;;19.35;100.00
23996;BME280;12207;50.076;8.848;2022-07-23T05:29:55;100161.88;;;19.18;100.00
23996;BME280;12207;50.076;8.848;2022-07-23T05:32:22;100147.31;;;19.25;100.00
23996;BME280;12207;50.076;8.848;2022-07-23T05:34:49;100154.53;;;19.46;100.00
23996;BME280;12207;50.076;8.848;2022-07-23T05:37:16;100157.84;;;19.37;100.00
23996;BME280;12207;50.076;8.848;2022-07-23T05:39:43;100159.31;;;19.21;100.00
23996;BME280;12207;50.076;8.848;2022-07-23T05:42:10;100169.13;;;19.42;100.00
23996;BME280;12207;50.076;8.848;2022-07-23T05:44:37;100165.75;;;19.46;100.00
23996;BME280;12207;50.076;8.848;2022-07-23T05:47:03;100171.03;;;19.52;100.00
23996;BME280;12207;50.076;8.848;2022-07-23T05:49:30;100158.91;;;19.48;100.00
23996;BME280;12207;50.076;8.848;2022-07-23T05:51:57;100177.19;;;19.62;100.00
23996;BME280;12207;50.076;8.848;2022-07-23T05:54:24;100180.47;;;19.49;100.00
23996;BME280;12207;50.076;8.848;2022-07-23T05:56:50;100177.97;;;19.56;100.00
23996;BME280;12207;50.076;8.848;2022-07-23T05:59:18;100178.25;;;19.75;100.00
23996;BME280;12207;50.076;8.848;2022-07-23T06:01:45;100171.50;;;19.86;100.00
23996;BME280;12207;50.076;8.848;2022-07-23T06:04:12;100175.97;;;19.98;100.00
23996;BME280;12207;50.076;8.848;2022-07-23T06:06:39;100170.84;;;20.01;100.00
23996;BME280;12207;50.076;8.848;2022-07-23T06:09:05;100169.84;;;19.93;100.00
23996;BME280;12207;50.076;8.848;2022-07-23T06:11:32;100176.13;;;20.10;100.00
23996;BME280;12207;50.076;8.848;2022-07-23T06:13:59;100175.34;;;20.16;100.00
23996;BME280;12207;50.076;8.848;2022-07-23T06:16:26;100177.22;;;21.14;100.00
23996;BME280;12207;50.076;8.848;2022-07-23T06:18:52;100182.72;;;21.53;94.86
23996;BME280;12207;50.076;8.848;2022-07-23T06:21:19;100191.31;;;21.44;95.58
23996;BME280;12207;50.076;8.848;2022-07-23T06:23:46;100190.59;;;21.67;95.25
23996;BME280;12207;50.076;8.848;2022-07-23T06:26:13;100196.19;;;22.51;88.08
23996;BME280;12207;50.076;8.848;2022-07-23T06:28:39;100195.34;;;22.66;87.19
23996;BME280;12207;50.076;8.848;2022-07-23T06:31:06;100195.91;;;21.83;89.86
23996;BME280;12207;50.076;8.848;2022-07-23T06:33:34;100197.53;;;21.66;91.10
23996;BME280;12207;50.076;8.848;2022-07-23T06:36:00;100201.41;;;21.10;96.26
23996;BME280;12207;50.076;8.848;2022-07-23T06:38:27;100199.78;;;21.23;96.19
23996;BME280;12207;50.076;8.848;2022-07-23T06:40:54;100210.56;;;21.72;93.87
23996;BME280;12207;50.076;8.848;2022-07-23T06:43:21;100203.63;;;21.74;91.87
23996;BME280;12207;50.076;8.848;2022-07-23T06:45:47;100206.09;;;21.53;93.28
23996;BME280;12207;50.076;8.848;2022-07-23T06:48:14;100200.94;;;21.57;92.36
23996;BME280;12207;50.076;8.848;2022-07-23T06:50:41;100202.16;;;22.22;88.54
23996;BME280;12207;50.076;8.848;2022-07-23T06:53:08;100201.22;;;22.08;88.98
23996;BME280;12207;50.076;8.848;2022-07-23T06:55:34;100189.06;;;22.07;90.15
23996;BME280;12207;50.076;8.848;2022-07-23T06:58:05;100190.91;;;22.29;88.50
23996;BME280;12207;50.076;8.848;2022-07-23T07:00:31;100204.94;;;22.91;84.41
23996;BME280;12207;50.076;8.848;2022-07-23T07:02:58;100201.41;;;22.62;85.68
23996;BME280;12207;50.076;8.848;2022-07-23T07:05:25;100211.03;;;23.36;83.31
23996;BME280;12207;50.076;8.848;2022-07-23T07:07:56;100204.91;;;23.90;80.22
23996;BME280;12207;50.076;8.848;2022-07-23T07:10:23;100209.06;;;24.40;78.29
23996;BME280;12207;50.076;8.848;2022-07-23T07:12:50;100216.28;;;25.33;73.70
23996;BME280;12207;50.076;8.848;2022-07-23T07:15:17;100226.09;;;25.02;72.98
23996;BME280;12207;50.076;8.848;2022-07-23T07:17:43;100216.81;;;24.56;73.92
23996;BME280;12207;50.076;8.848;2022-07-23T07:20:10;100221.22;;;24.39;75.75
23996;BME280;12207;50.076;8.848;2022-07-23T07:22:37;100220.38;;;24.43;76.56
23996;BME280;12207;50.076;8.848;2022-07-23T07:25:05;100215.31;;;23.91;76.98
23996;BME280;12207;50.076;8.848;2022-07-23T07:27:32;100226.41;;;24.53;77.74
23996;BME280;12207;50.076;8.848;2022-07-23T07:29:59;100223.66;;;24.76;75.96
23996;BME280;12207;50.076;8.848;2022-07-23T07:32:26;100223.53;;;24.96;73.29
23996;BME280;12207;50.076;8.848;2022-07-23T07:34:52;100228.06;;;24.66;75.86
23996;BME280;12207;50.076;8.848;2022-07-23T07:37:19;100234.66;;;25.26;73.85
23996;BME280;12207;50.076;8.848;2022-07-23T07:39:46;100236.88;;;25.67;71.64
23996;BME280;12207;50.076;8.848;2022-07-23T07:42:13;100236.50;;;26.07;69.05
23996;BME280;12207;50.076;8.848;2022-07-23T07:44:39;100241.84;;;24.93;71.39
23996;BME280;12207;50.076;8.848;2022-07-23T07:47:06;100244.72;;;24.39;74.55
23996;BME280;12207;50.076;8.848;2022-07-23T07:49:34;100245.09;;;25.26;71.95
23996;BME280;12207;50.076;8.848;2022-07-23T07:52:01;100244.47;;;24.85;71.96
23996;BME280;12207;50.076;8.848;2022-07-23T07:54:28;100243.88;;;24.28;75.83
23996;BME280;12207;50.076;8.848;2022-07-23T07:56:54;100255.03;;;24.65;74.40
23996;BME280;12207;50.076;8.848;2022-07-23T07:59:21;100265.06;;;25.31;71.54
23996;BME280;12207;50.076;8.848;2022-07-23T08:01:48;100262.56;;;25.16;72.08
23996;BME280;12207;50.076;8.848;2022-07-23T08:04:14;100261.75;;;25.08;72.33
23996;BME280;12207;50.076;8.848;2022-07-23T08:06:41;100254.25;;;24.49;74.25
23996;BME280;12207;50.076;8.848;2022-07-23T08:09:08;100260.41;;;25.65;70.48
23996;BME280;12207;50.076;8.848;2022-07-23T08:11:35;100259.09;;;25.12;71.87
23996;BME280;12207;50.076;8.848;2022-07-23T08:14:01;100266.22;;;24.86;73.90
23996;BME280;12207;50.076;8.848;2022-07-23T08:16:28;100271.94;;;25.44;69.84
23996;BME280;12207;50.076;8.848;2022-07-23T08:18:55;100270.84;;;26.49;67.23
23996;BME280;12207;50.076;8.848;2022-07-23T08:21:22;100278.03;;;26.33;66.35
23996;BME280;12207;50.076;8.848;2022-07-23T08:23:48;100279.66;;;26.43;67.36
23996;BME280;12207;50.076;8.848;2022-07-23T08:26:15;100271.59;;;26.62;65.77
23996;BME280;12207;50.076;8.848;2022-07-23T08:28:42;100266.84;;;26.88;68.26
23996;BME280;12207;50.076;8.848;2022-07-23T08:31:09;100274.75;;;26.16;66.89
23996;BME280;12207;50.076;8.848;2022-07-23T08:33:37;100277.00;;;25.64;69.34
23996;BME280;12207;50.076;8.848;2022-07-23T08:36:05;100276.00;;;25.76;69.84
23996;BME280;12207;50.076;8.848;2022-07-23T08:38:32;100274.63;;;25.34;70.04
23996;BME280;12207;50.076;8.848;2022-07-23T08:40:59;100283.19;;;25.51;71.91
23996;BME280;12207;50.076;8.848;2022-07-23T08:43:32;100280.69;;;25.39;71.79
23996;BME280;12207;50.076;8.848;2022-07-23T08:46:00;100282.34;;;25.48;70.58
23996;BME280;12207;50.076;8.848;2022-07-23T08:48:33;100280.59;;;25.53;70.79
23996;BME280;12207;50.076;8.848;2022-07-23T08:51:02;100291.59;;;25.87;70.30
23996;BME280;12207;50.076;8.848;2022-07-23T08:53:30;100287.13;;;26.03;67.96
23996;BME280;12207;50.076;8.848;2022-07-23T08:55:59;100288.16;;;25.79;68.49
23996;BME280;12207;50.076;8.848;2022-07-23T08:58:28;100276.50;;;25.10;71.83
23996;BME280;12207;50.076;8.848;2022-07-23T09:00:55;100282.59;;;25.18;72.69
23996;BME280;12207;50.076;8.848;2022-07-23T09:03:28;100276.97;;;25.67;69.80
23996;BME280;12207;50.076;8.848;2022-07-23T09:05:57;100281.44;;;25.53;71.65
23996;BME280;12207;50.076;8.848;2022-07-23T09:08:25;100279.84;;;25.34;70.85
23996;BME280;12207;50.076;8.848;2022-07-23T09:10:53;100276.41;;;26.23;68.49
23996;BME280;12207;50.076;8.848;2022-07-23T09:13:39;100276.53;;;26.10;67.05
23996;BME280;12207;50.076;8.848;2022-07-23T09:16:09;100276.47;;;26.18;67.07
23996;BME280;12207;50.076;8.848;2022-07-23T09:18:55;100274.56;;;26.31;67.67
23996;BME280;12207;50.076;8.848;2022-07-23T09:24:13;100281.56;;;26.30;66.48
23996;BME280;12207;50.076;8.848;2022-07-23T09:26:48;100271.84;;;26.42;67.09
23996;BME280;12207;50.076;8.848;2022-07-23T09:29:17;100261.84;;;26.73;65.67
23996;BME280;12207;50.076;8.848;2022-07-23T09:34:15;100262.28;;;27.04;61.90
23996;BME280;12207;50.076;8.848;2022-07-23T09:36:42;100272.03;;;26.93;63.13
23996;BME280;12207;50.076;8.848;2022-07-23T09:39:10;100267.56;;;26.99;61.20
23996;BME280;12207;50.076;8.848;2022-07-23T09:41:44;100271.13;;;27.51;61.83
23996;BME280;12207;50.076;8.848;2022-07-23T09:44:16;100281.88;;;27.87;59.08
23996;BME280;12207;50.076;8.848;2022-07-23T09:46:44;100283.88;;;27.20;59.63
23996;BME280;12207;50.076;8.848;2022-07-23T09:49:17;100281.78;;;27.42;59.40
23996;BME280;12207;50.076;8.848;2022-07-23T09:51:50;100283.22;;;27.61;60.26
23996;BME280;12207;50.076;8.848;2022-07-23T09:54:30;100277.38;;;27.95;59.61
23996;BME280;12207;50.076;8.848;2022-07-23T09:57:00;100289.13;;;28.21;58.16
23996;BME280;12207;50.076;8.848;2022-07-23T09:59:29;100279.44;;;27.79;57.82
23996;BME280;12207;50.076;8.848;2022-07-23T10:01:58;100273.75;;;28.02;57.08
23996;BME280;12207;50.076;8.848;2022-07-23T10:04:28;100277.91;;;28.57;55.75
23996;BME280;12207;50.076;8.848;2022-07-23T10:06:57;100287.25;;;28.27;54.88
23996;BME280;12207;50.076;8.848;2022-07-23T10:09:32;100276.09;;;26.53;59.06
23996;BME280;12207;50.076;8.848;2022-07-23T10:12:02;100284.09;;;26.35;58.71
23996;BME280;12207;50.076;8.848;2022-07-23T10:14:47;100275.16;;;26.56;55.77
23996;BME280;12207;50.076;8.848;2022-07-23T10:17:15;100274.22;;;27.75;54.07
23996;BME280;12207;50.076;8.848;2022-07-23T10:19:42;100276.03;;;27.72;55.35
23996;BME280;12207;50.076;8.848;2022-07-23T10:22:12;100274.00;;;27.36;55.10
23996;BME280;12207;50.076;8.848;2022-07-23T10:30:07;100280.94;;;28.36;50.03
23996;BME280;12207;50.076;8.848;2022-07-23T10:36:01;100272.94;;;27.47;53.20
23996;BME280;12207;50.076;8.848;2022-07-23T10:38:56;100275.72;;;27.91;52.58
23996;BME280;12207;50.076;8.848;2022-07-23T10:41:36;100274.28;;;28.61;51.12
23996;BME280;12207;50.076;8.848;2022-07-23T10:46:35;100281.59;;;28.89;51.73
23996;BME280;12207;50.076;8.848;2022-07-23T10:49:32;100281.25;;;28.21;51.44
23996;BME280;12207;50.076;8.848;2022-07-23T10:54:42;100279.44;;;28.68;50.65
23996;BME280;12207;50.076;8.848;2022-07-23T10:57:13;100275.84;;;27.83;51.59
23996;BME280;12207;50.076;8.848;2022-07-23T11:02:33;100275.56;;;27.49;53.37
23996;BME280;12207;50.076;8.848;2022-07-23T11:07:28;100271.09;;;28.49;49.29
23996;BME280;12207;50.076;8.848;2022-07-23T11:09:54;100277.00;;;28.13;51.24
23996;BME280;12207;50.076;8.848;2022-07-23T11:17:23;100266.31;;;29.78;47.95
23996;BME280;12207;50.076;8.848;2022-07-23T11:25:34;100262.38;;;29.60;47.80
23996;BME280;12207;50.076;8.848;2022-07-23T11:28:16;100262.66;;;29.14;49.78
23996;BME280;12207;50.076;8.848;2022-07-23T11:30:47;100261.03;;;29.08;48.56
23996;BME280;12207;50.076;8.848;2022-07-23T11:35:43;100262.13;;;28.98;47.63
23996;BME280;12207;50.076;8.848;2022-07-23T11:38:22;100251.63;;;28.57;48.92
23996;BME280;12207;50.076;8.848;2022-07-23T11:40:54;100260.63;;;29.59;47.97
23996;BME280;12207;50.076;8.848;2022-07-23T11:43:22;100253.56;;;29.95;46.96
23996;BME280;12207;50.076;8.848;2022-07-23T11:45:53;100258.63;;;30.64;45.83
23996;BME280;12207;50.076;8.848;2022-07-23T11:48:25;100255.09;;;30.93;43.70
23996;BME280;12207;50.076;8.848;2022-07-23T11:50:55;100255.44;;;30.53;44.73
23996;BME280;12207;50.076;8.848;2022-07-23T11:53:32;100256.69;;;30.69;45.01
23996;BME280;12207;50.076;8.848;2022-07-23T11:56:10;100239.63;;;30.82;44.76
23996;BME280;12207;50.076;8.848;2022-07-23T11:58:38;100247.31;;;29.98;45.12
23996;BME280;12207;50.076;8.848;2022-07-23T12:01:06;100250.78;;;30.00;45.97
23996;BME280;12207;50.076;8.848;2022-07-23T12:03:33;100245.22;;;30.11;46.59
23996;BME280;12207;50.076;8.848;2022-07-23T12:06:00;100255.06;;;30.65;44.64
23996;BME280;12207;50.076;8.848;2022-07-23T12:08:27;100243.72;;;30.33;44.70
23996;BME280;12207;50.076;8.848;2022-07-23T12:10:54;100235.97;;;30.86;44.65
23996;BME280;12207;50.076;8.848;2022-07-23T12:13:21;100241.72;;;29.79;45.11
23996;BME280;12207;50.076;8.848;2022-07-23T12:15:52;100231.56;;;30.29;45.56
23996;BME280;12207;50.076;8.848;2022-07-23T12:18:24;100231.50;;;30.00;44.77
23996;BME280;12207;50.076;8.848;2022-07-23T12:20:56;100230.34;;;30.41;44.40
23996;BME280;12207;50.076;8.848;2022-07-23T12:23:25;100232.63;;;30.52;44.22
23996;BME280;12207;50.076;8.848;2022-07-23T12:25:53;100230.50;;;29.72;44.39
23996;BME280;12207;50.076;8.848;2022-07-23T12:28:28;100231.19;;;29.79;45.32
23996;BME280;12207;50.076;8.848;2022-07-23T12:30:57;100227.41;;;30.19;45.05
23996;BME280;12207;50.076;8.848;2022-07-23T12:33:36;100224.91;;;29.50;45.56
23996;BME280;12207;50.076;8.848;2022-07-23T12:36:06;100225.63;;;28.85;47.04
23996;BME280;12207;50.076;8.848;2022-07-23T12:38:40;100218.91;;;29.45;47.83
23996;BME280;12207;50.076;8.848;2022-07-23T12:41:07;100221.94;;;29.30;46.83
23996;BME280;12207;50.076;8.848;2022-07-23T12:43:37;100216.91;;;28.45;47.47
23996;BME280;12207;50.076;8.848;2022-07-23T12:46:18;100226.78;;;28.74;46.80
23996;BME280;12207;50.076;8.848;2022-07-23T12:48:53;100223.81;;;29.25;45.38
23996;BME280;12207;50.076;8.848;2022-07-23T12:51:24;100225.06;;;30.10;43.59
23996;BME280;12207;50.076;8.848;2022-07-23T12:53:52;100234.63;;;30.12;44.50
23996;BME280;12207;50.076;8.848;2022-07-23T12:56:31;100227.28;;;29.92;43.85
23996;BME280;12207;50.076;8.848;2022-07-23T12:59:18;100229.31;;;30.45;43.58
23996;BME280;12207;50.076;8.848;2022-07-23T13:01:53;100231.47;;;30.32;44.19
23996;BME280;12207;50.076;8.848;2022-07-23T13:04:24;100219.41;;;29.25;45.46
23996;BME280;12207;50.076;8.848;2022-07-23T13:06:56;100232.22;;;29.73;43.86
23996;BME280;12207;50.076;8.848;2022-07-23T13:09:31;100219.69;;;30.13;43.78
23996;BME280;12207;50.076;8.848;2022-07-23T13:11:58;100224.28;;;30.95;42.39
23996;BME280;12207;50.076;8.848;2022-07-23T13:14:26;100236.16;;;31.35;42.68
23996;BME280;12207;50.076;8.848;2022-07-23T13:16:54;100237.66;;;30.89;41.52
23996;BME280;12207;50.076;8.848;2022-07-23T13:19:21;100234.81;;;29.75;43.57
23996;BME280;12207;50.076;8.848;2022-07-23T13:21:51;100229.75;;;30.61;42.61
23996;BME280;12207;50.076;8.848;2022-07-23T13:24:18;100231.75;;;30.53;41.56
23996;BME280;12207;50.076;8.848;2022-07-23T13:26:45;100236.91;;;31.65;40.74
23996;BME280;12207;50.076;8.848;2022-07-23T13:29:13;100234.03;;;31.46;40.77
23996;BME280;12207;50.076;8.848;2022-07-23T13:31:40;100227.97;;;30.61;42.68